createdAt,value
2022-11-25T00:01:24.855Z,28.83
2022-11-25T00:03:53.026Z,16.63
2022-11-25T00:06:21.753Z,23.30
2022-11-25T00:08:50.422Z,26.92
2022-11-25T00:11:17.913Z,24.35
2022-11-25T00:13:45.931Z,24.63
2022-11-25T00:16:14.629Z,29.50
2022-11-25T00:18:45.306Z,27.52
2022-11-25T00:21:16.747Z,28.13
2022-11-25T00:23:43.903Z,26.30
2022-11-25T00:26:12.434Z,24.83
2022-11-25T00:28:39.946Z,21.77
2022-11-25T00:31:26.605Z,17.35
2022-11-25T00:33:54.179Z,21.20
2022-11-25T00:36:22.566Z,20.17
2022-11-25T00:38:53.615Z,26.20
2022-11-25T00:41:39.293Z,21.85
2022-11-25T00:46:52.056Z,18.73
2022-11-25T00:49:19.223Z,21.92
2022-11-25T00:51:46.385Z,26.30
2022-11-25T00:54:13.658Z,17.88
2022-11-25T00:56:41.192Z,18.67
2022-11-25T00:59:08.943Z,16.67
2022-11-25T01:01:36.888Z,18.52
2022-11-25T01:04:04.632Z,21.33
2022-11-25T01:06:31.898Z,19.40
2022-11-25T01:08:59.155Z,21.98
2022-11-25T01:11:26.379Z,24.40
2022-11-25T01:14:00.795Z,23.38
2022-11-25T01:16:29.049Z,21.77
2022-11-25T01:18:56.237Z,17.38
2022-11-25T01:21:27.168Z,16.38
2022-11-25T01:23:54.640Z,16.45
2022-11-25T01:26:23.083Z,16.67
2022-11-25T01:28:53.628Z,20.00
2022-11-25T01:31:22.150Z,16.60
2022-11-25T01:33:53.313Z,17.05
2022-11-25T01:36:20.504Z,21.55
2022-11-25T01:38:50.654Z,23.92
2022-11-25T01:41:18.262Z,24.52
2022-11-25T01:44:02.923Z,19.20
2022-11-25T01:46:31.918Z,19.58
2022-11-25T01:49:03.896Z,21.80
2022-11-25T01:51:53.092Z,18.00
2022-11-25T01:54:22.720Z,16.73
2022-11-25T01:57:10.868Z,18.85
2022-11-25T01:59:40.116Z,19.13
2022-11-25T02:02:07.803Z,16.05
2022-11-25T02:04:36.491Z,15.55
2022-11-25T02:07:19.773Z,16.67
2022-11-25T02:09:48.091Z,18.23
2022-11-25T02:12:17.193Z,20.45
2022-11-25T02:14:45.132Z,14.18
2022-11-25T02:17:12.291Z,22.70
2022-11-25T02:19:46.727Z,20.75
2022-11-25T02:22:19.983Z,17.57
2022-11-25T02:24:48.296Z,15.13
2022-11-25T02:27:15.431Z,17.60
2022-11-25T02:29:43.829Z,23.98
2022-11-25T02:32:11.050Z,13.45
2022-11-25T02:34:46.926Z,20.80
2022-11-25T02:37:14.597Z,16.95
2022-11-25T02:39:41.755Z,18.50
2022-11-25T02:42:08.985Z,16.85
2022-11-25T02:44:36.288Z,22.67
2022-11-25T02:47:03.629Z,14.43
2022-11-25T02:49:30.759Z,26.00
2022-11-25T02:51:57.911Z,21.85
2022-11-25T02:54:25.101Z,14.82
2022-11-25T02:56:52.297Z,25.88
2022-11-25T02:59:19.588Z,21.92
2022-11-25T03:01:47.064Z,21.73
2022-11-25T03:04:14.346Z,22.08
2022-11-25T03:06:41.491Z,13.93
2022-11-25T03:09:08.655Z,18.95
2022-11-25T03:11:54.340Z,21.60
2022-11-25T03:16:48.611Z,21.58
2022-11-25T03:19:15.831Z,15.52
2022-11-25T03:21:42.965Z,15.90
2022-11-25T03:24:10.107Z,23.75
2022-11-25T03:26:37.262Z,17.40
2022-11-25T03:29:04.395Z,24.55
2022-11-25T03:31:31.649Z,15.43
2022-11-25T03:33:58.794Z,28.17
2022-11-25T03:36:25.921Z,20.80
2022-11-25T03:38:53.108Z,20.35
2022-11-25T03:41:20.264Z,21.88
2022-11-25T03:43:48.984Z,21.08
2022-11-25T03:46:16.243Z,22.92
2022-11-25T03:48:43.416Z,20.33
2022-11-25T03:51:10.895Z,20.27
2022-11-25T03:53:38.021Z,21.95
2022-11-25T03:56:05.331Z,27.33
2022-11-25T03:58:32.476Z,22.35
2022-11-25T04:01:02.832Z,17.02
2022-11-25T04:03:30.123Z,20.13
2022-11-25T04:05:57.280Z,28.02
2022-11-25T04:08:24.682Z,25.67
2022-11-25T04:10:52.180Z,16.27
2022-11-25T04:13:19.551Z,19.88
2022-11-25T04:15:47.284Z,23.08
2022-11-25T04:18:14.915Z,19.70
2022-11-25T04:20:42.471Z,21.75
2022-11-25T04:23:09.857Z,27.85
2022-11-25T04:25:37.662Z,20.05
2022-11-25T04:28:05.027Z,21.50
2022-11-25T04:30:32.791Z,21.98
2022-11-25T04:32:59.972Z,18.15
2022-11-25T04:35:27.136Z,21.88
2022-11-25T04:37:54.400Z,17.92
2022-11-25T04:40:21.559Z,15.73
2022-11-25T04:42:48.722Z,28.05
2022-11-25T04:45:24.427Z,25.45
2022-11-25T04:47:52.674Z,26.27
2022-11-25T04:50:21.675Z,24.00
2022-11-25T04:52:48.868Z,20.45
2022-11-25T04:55:16.086Z,24.98
2022-11-25T04:57:43.224Z,20.90
2022-11-25T05:00:10.875Z,27.85
2022-11-25T05:02:38.100Z,25.08
2022-11-25T05:05:06.031Z,18.67
2022-11-25T05:07:33.386Z,20.15
2022-11-25T05:10:00.563Z,24.95
2022-11-25T05:12:29.185Z,21.60
2022-11-25T05:14:56.530Z,30.95
2022-11-25T05:17:24.961Z,22.50
2022-11-25T05:19:52.313Z,28.85
2022-11-25T05:22:21.396Z,25.27
2022-11-25T05:24:48.777Z,23.23
2022-11-25T05:27:16.290Z,27.83
2022-11-25T05:29:43.447Z,27.15
2022-11-25T05:32:10.737Z,22.45
2022-11-25T05:34:38.750Z,31.23
2022-11-25T05:37:06.165Z,18.30
2022-11-25T05:39:33.359Z,25.20
2022-11-25T05:42:00.591Z,30.50
2022-11-25T05:44:28.192Z,25.92
2022-11-25T05:46:55.362Z,26.88
2022-11-25T05:49:22.562Z,21.00
2022-11-25T05:51:49.686Z,27.48
2022-11-25T05:54:17.334Z,23.77
2022-11-25T05:56:44.468Z,26.65
2022-11-25T05:59:11.614Z,26.40
2022-11-25T06:01:38.767Z,19.70
2022-11-25T06:04:06.058Z,17.23
2022-11-25T06:06:33.296Z,25.58
2022-11-25T06:09:01.091Z,21.40
2022-11-25T06:11:28.337Z,21.52
2022-11-25T06:13:57.596Z,20.20
2022-11-25T06:16:25.611Z,17.92
2022-11-25T06:18:52.951Z,22.08
2022-11-25T06:21:20.111Z,39.42
2022-11-25T06:23:47.320Z,26.83
2022-11-25T06:26:14.419Z,19.92
2022-11-25T06:28:41.616Z,22.92
2022-11-25T06:31:10.139Z,30.30
2022-11-25T06:33:37.911Z,27.15
2022-11-25T06:36:09.861Z,29.80
2022-11-25T06:38:37.088Z,22.20
2022-11-25T06:41:05.449Z,24.40
2022-11-25T06:43:33.191Z,28.65
2022-11-25T06:46:04.765Z,27.42
2022-11-25T06:48:32.265Z,32.75
2022-11-25T06:51:00.552Z,29.20
2022-11-25T06:53:28.186Z,25.40
2022-11-25T06:56:04.550Z,31.02
2022-11-25T06:58:35.997Z,24.90
2022-11-25T07:01:05.242Z,25.05
2022-11-25T07:03:32.459Z,34.13
2022-11-25T07:06:00.283Z,27.35
2022-11-25T07:08:32.392Z,30.80
2022-11-25T07:11:27.727Z,33.80
2022-11-25T07:13:56.274Z,25.02
2022-11-25T07:16:23.840Z,34.67
2022-11-25T07:18:51.060Z,36.30
2022-11-25T07:21:20.050Z,31.38
2022-11-25T07:23:47.397Z,27.45
2022-11-25T07:26:15.730Z,35.45
2022-11-25T07:28:43.657Z,30.13
2022-11-25T07:31:28.769Z,26.23
2022-11-25T07:34:00.755Z,34.90
2022-11-25T07:36:28.562Z,30.65
2022-11-25T07:38:56.139Z,39.95
2022-11-25T07:41:24.379Z,31.23
2022-11-25T07:43:53.515Z,32.83
2022-11-25T07:46:26.548Z,31.27
2022-11-25T07:48:55.525Z,39.20
2022-11-25T07:51:24.807Z,32.35
2022-11-25T07:53:52.348Z,34.45
2022-11-25T07:56:19.535Z,35.08
2022-11-25T07:58:46.756Z,40.10
2022-11-25T08:01:15.056Z,43.00
2022-11-25T08:03:43.183Z,34.47
2022-11-25T08:06:11.703Z,33.03
2022-11-25T08:08:39.384Z,39.45
2022-11-25T08:11:07.947Z,41.42
2022-11-25T08:13:35.113Z,36.65
2022-11-25T08:16:02.392Z,38.20
2022-11-25T08:18:29.590Z,40.40
2022-11-25T08:21:04.688Z,33.72
2022-11-25T08:23:32.562Z,27.45
2022-11-25T08:26:03.884Z,31.90
2022-11-25T08:28:31.071Z,40.17
2022-11-25T08:31:05.907Z,25.15
2022-11-25T08:33:33.230Z,36.20
2022-11-25T08:36:00.522Z,36.97
2022-11-25T08:38:27.995Z,33.75
2022-11-25T08:40:55.266Z,38.25
2022-11-25T08:43:27.881Z,36.55
2022-11-25T08:45:56.574Z,28.35
2022-11-25T08:48:23.764Z,30.20
2022-11-25T08:50:54.917Z,36.60
2022-11-25T08:53:22.926Z,33.05
2022-11-25T08:55:50.094Z,29.52
2022-11-25T08:58:17.287Z,39.85
2022-11-25T09:00:45.530Z,27.30
2022-11-25T09:03:13.026Z,24.42
2022-11-25T09:05:41.852Z,28.58
2022-11-25T09:08:09.675Z,26.40
2022-11-25T09:10:37.340Z,24.35
2022-11-25T09:13:04.615Z,22.52
2022-11-25T09:15:32.690Z,25.08
2022-11-25T09:18:04.057Z,26.65
2022-11-25T09:20:32.297Z,30.65
2022-11-25T09:23:00.260Z,33.22
2022-11-25T09:25:27.603Z,23.45
2022-11-25T09:27:54.923Z,21.85
2022-11-25T09:30:22.146Z,19.77
2022-11-25T09:32:50.174Z,24.83
2022-11-25T09:35:17.628Z,22.05
2022-11-25T09:37:44.761Z,22.25
2022-11-25T09:40:18.820Z,23.63
2022-11-25T09:43:11.014Z,25.33
2022-11-25T09:46:25.670Z,21.58
2022-11-25T09:48:52.900Z,24.02
2022-11-25T09:51:38.878Z,24.85
2022-11-25T09:54:16.784Z,16.02
2022-11-25T09:56:49.500Z,24.65
2022-11-25T09:59:21.234Z,21.80
2022-11-25T10:01:54.477Z,17.13
2022-11-25T10:04:27.717Z,17.10
2022-11-25T10:06:57.140Z,19.38
2022-11-25T10:09:29.662Z,17.73
2022-11-25T10:11:59.125Z,19.33
2022-11-25T10:14:35.336Z,21.92
2022-11-25T10:17:02.492Z,16.92
2022-11-25T10:19:36.014Z,19.05
2022-11-25T10:22:22.355Z,20.30
2022-11-25T10:24:50.282Z,15.95
2022-11-25T10:27:25.058Z,19.38
2022-11-25T10:29:59.850Z,16.80
2022-11-25T10:32:28.278Z,17.88
2022-11-25T10:35:01.434Z,16.35
2022-11-25T10:37:35.320Z,20.17
2022-11-25T10:40:02.592Z,16.77
2022-11-25T10:42:30.236Z,13.25
2022-11-25T10:44:57.471Z,10.93
2022-11-25T10:47:32.937Z,16.13
2022-11-25T10:50:04.490Z,14.98
2022-11-25T10:52:35.142Z,12.15
2022-11-25T10:55:13.181Z,14.07
2022-11-25T10:57:40.471Z,10.38
2022-11-25T11:00:14.099Z,9.43
2022-11-25T11:02:48.381Z,8.98
2022-11-25T11:05:22.011Z,10.80
2022-11-25T11:07:49.215Z,13.15
2022-11-25T11:10:34.505Z,12.05
2022-11-25T11:13:03.332Z,10.63
2022-11-25T11:15:50.876Z,13.50
2022-11-25T11:18:40.323Z,12.95
2022-11-25T11:21:09.396Z,15.13
2022-11-25T11:23:51.090Z,13.25
2022-11-25T11:26:26.471Z,14.77
2022-11-25T11:31:27.170Z,19.83
2022-11-25T11:34:06.535Z,13.02
2022-11-25T11:36:36.419Z,13.68
2022-11-25T11:39:06.412Z,15.23
2022-11-25T11:41:50.803Z,13.20
2022-11-25T11:44:23.797Z,12.55
2022-11-25T11:47:02.563Z,10.68
2022-11-25T11:49:41.155Z,14.55
2022-11-25T11:52:12.033Z,12.98
2022-11-25T11:54:53.422Z,13.77
2022-11-25T11:57:36.427Z,14.50
2022-11-25T12:00:06.945Z,13.68
2022-11-25T12:02:34.191Z,10.93
2022-11-25T12:05:05.586Z,13.75
2022-11-25T12:07:35.402Z,13.75
2022-11-25T12:10:16.245Z,15.05
2022-11-25T12:13:13.382Z,16.50
2022-11-25T12:15:43.668Z,13.90
2022-11-25T12:18:36.908Z,10.40
2022-11-25T12:21:05.510Z,11.93
2022-11-25T12:23:52.904Z,13.82
2022-11-25T12:26:31.742Z,20.50
2022-11-25T12:29:00.731Z,15.07
2022-11-25T12:31:30.225Z,9.77
2022-11-25T12:34:00.637Z,14.93
2022-11-25T12:36:35.558Z,17.13
2022-11-25T12:39:05.016Z,10.95
2022-11-25T12:41:45.534Z,12.27
2022-11-25T12:44:12.654Z,15.27
2022-11-25T12:46:42.219Z,19.42
2022-11-25T12:49:16.399Z,12.77
2022-11-25T12:51:55.708Z,17.35
2022-11-25T12:54:25.881Z,15.13
2022-11-25T12:56:52.996Z,14.07
2022-11-25T12:59:34.416Z,16.65
2022-11-25T13:02:20.494Z,12.75
2022-11-25T13:05:38.828Z,12.60
2022-11-25T13:08:19.425Z,15.07
2022-11-25T13:10:51.531Z,11.77
2022-11-25T13:13:27.972Z,16.63
2022-11-25T13:15:56.056Z,18.83
2022-11-25T13:18:25.904Z,16.25
2022-11-25T13:20:56.967Z,12.20
2022-11-25T13:23:25.863Z,17.85
2022-11-25T13:25:54.145Z,12.13
2022-11-25T13:28:37.713Z,16.92
2022-11-25T13:31:14.069Z,9.38
2022-11-25T13:33:44.790Z,16.02
2022-11-25T13:36:18.129Z,14.25
2022-11-25T13:38:51.363Z,10.68
2022-11-25T13:41:21.344Z,23.23
2022-11-25T13:43:54.673Z,13.65
2022-11-25T13:46:30.294Z,17.67
2022-11-25T13:48:57.524Z,12.60
2022-11-25T13:51:27.154Z,17.35
2022-11-25T13:54:01.110Z,13.90
2022-11-25T13:56:30.204Z,16.05
2022-11-25T13:59:13.968Z,15.80
2022-11-25T14:01:47.395Z,17.02
2022-11-25T14:04:15.453Z,12.45
2022-11-25T14:06:44.016Z,21.92
2022-11-25T14:09:13.947Z,15.27
2022-11-25T14:11:44.005Z,16.50
2022-11-25T14:14:17.322Z,19.00
2022-11-25T14:16:59.853Z,14.43
2022-11-25T14:19:52.779Z,18.55
2022-11-25T14:22:39.025Z,17.10
2022-11-25T14:25:26.787Z,16.90
2022-11-25T14:28:14.223Z,20.83
2022-11-25T14:30:53.046Z,17.63
2022-11-25T14:33:26.756Z,18.65
2022-11-25T14:35:56.414Z,13.43
2022-11-25T14:38:25.816Z,18.27
2022-11-25T14:41:00.246Z,14.38
2022-11-25T14:43:27.970Z,15.20
2022-11-25T14:46:15.603Z,16.17
2022-11-25T14:48:43.411Z,20.70
2022-11-25T14:51:13.675Z,14.60
2022-11-25T14:53:48.111Z,16.40
2022-11-25T14:56:17.109Z,14.48
2022-11-25T14:58:48.452Z,16.60
2022-11-25T15:01:19.860Z,18.13
2022-11-25T15:03:48.001Z,12.98
2022-11-25T15:06:15.905Z,18.52
2022-11-25T15:08:47.269Z,22.98
2022-11-25T15:11:16.728Z,10.25
2022-11-25T15:13:54.483Z,21.35
2022-11-25T15:16:23.346Z,20.17
2022-11-25T15:18:55.340Z,15.65
2022-11-25T15:21:24.446Z,13.77
2022-11-25T15:23:51.641Z,18.50
2022-11-25T15:26:23.032Z,23.13
2022-11-25T15:29:00.803Z,11.73
2022-11-25T15:31:30.355Z,19.55
2022-11-25T15:33:59.163Z,20.67
2022-11-25T15:36:26.754Z,21.35
2022-11-25T15:38:54.471Z,19.65
2022-11-25T15:41:35.161Z,16.67
2022-11-25T15:44:04.225Z,20.25
2022-11-25T15:46:33.113Z,19.85
2022-11-25T15:49:02.037Z,24.58
2022-11-25T15:51:32.202Z,18.70
2022-11-25T15:54:02.666Z,28.52
2022-11-25T15:56:29.955Z,22.83
2022-11-25T15:59:01.470Z,16.10
2022-11-25T16:01:29.750Z,22.27
2022-11-25T16:04:10.928Z,19.50
2022-11-25T16:06:38.084Z,18.42
2022-11-25T16:09:17.922Z,24.48
2022-11-25T16:11:45.839Z,27.58
2022-11-25T16:14:30.684Z,20.48
2022-11-25T16:17:06.290Z,13.10
2022-11-25T16:19:38.210Z,27.63
2022-11-25T16:22:05.974Z,20.95
2022-11-25T16:24:35.511Z,13.25
2022-11-25T16:27:08.030Z,21.58
2022-11-25T16:29:38.626Z,24.48
2022-11-25T16:32:16.292Z,19.73
2022-11-25T16:34:43.841Z,19.30
2022-11-25T16:37:11.109Z,26.63
2022-11-25T16:39:39.417Z,17.20
2022-11-25T16:42:07.420Z,18.63
2022-11-25T16:44:35.290Z,17.83
2022-11-25T16:47:02.604Z,22.85
2022-11-25T16:49:30.674Z,20.65
2022-11-25T16:51:58.204Z,23.83
2022-11-25T16:54:25.421Z,19.38
2022-11-25T16:56:53.597Z,16.98
2022-11-25T16:59:32.330Z,27.55
2022-11-25T17:02:00.268Z,23.58
2022-11-25T17:04:27.708Z,25.42
2022-11-25T17:07:30.447Z,26.98
2022-11-25T17:09:44.326Z,22.85
2022-11-25T17:12:15.138Z,19.45
2022-11-25T17:14:42.504Z,34.38
2022-11-25T17:17:12.197Z,25.90
2022-11-25T17:19:39.782Z,21.67
2022-11-25T17:22:14.321Z,29.70
2022-11-25T17:24:41.508Z,23.77
2022-11-25T17:27:08.839Z,26.38
2022-11-25T17:29:40.513Z,32.13
2022-11-25T17:32:08.006Z,21.40
2022-11-25T17:34:39.473Z,24.33
2022-11-25T17:37:20.313Z,28.48
2022-11-25T17:39:47.694Z,23.15
2022-11-25T17:42:16.425Z,30.48
2022-11-25T17:44:45.918Z,27.65
2022-11-25T17:47:17.147Z,29.48
2022-11-25T17:49:45.852Z,32.92
2022-11-25T17:52:13.114Z,21.75
2022-11-25T17:54:40.697Z,22.38
2022-11-25T17:57:08.927Z,26.10
2022-11-25T17:59:36.363Z,29.02
2022-11-25T18:02:03.585Z,32.78
2022-11-25T18:04:35.600Z,28.20
2022-11-25T18:07:03.004Z,27.67
2022-11-25T18:09:30.208Z,33.30
2022-11-25T18:11:58.699Z,21.40
2022-11-25T18:14:27.207Z,34.10
2022-11-25T18:16:55.534Z,22.30
2022-11-25T18:19:23.034Z,29.63
2022-11-25T18:21:50.219Z,21.63
2022-11-25T18:24:17.364Z,34.65
2022-11-25T18:26:45.684Z,19.77
2022-11-25T18:29:15.364Z,26.60
2022-11-25T18:31:44.668Z,33.17
2022-11-25T18:34:15.731Z,32.47
2022-11-25T18:36:42.937Z,26.52
2022-11-25T18:39:10.167Z,31.05
2022-11-25T18:41:38.191Z,33.65
2022-11-25T18:44:06.484Z,27.15
2022-11-25T18:46:37.536Z,24.55
2022-11-25T18:49:14.582Z,36.25
2022-11-25T18:51:42.216Z,33.20
2022-11-25T18:54:10.024Z,30.90
2022-11-25T18:56:37.958Z,31.77
2022-11-25T18:59:05.722Z,22.80
2022-11-25T19:01:33.103Z,31.30
2022-11-25T19:04:00.370Z,44.13
2022-11-25T19:06:29.273Z,30.00
2022-11-25T19:08:56.879Z,31.20
2022-11-25T19:11:29.709Z,28.77
2022-11-25T19:14:01.668Z,36.70
2022-11-25T19:16:29.049Z,27.27
2022-11-25T19:18:56.250Z,24.75
2022-11-25T19:21:24.485Z,31.55
2022-11-25T19:23:51.687Z,27.40
2022-11-25T19:26:24.314Z,31.60
2022-11-25T19:28:55.656Z,30.77
2022-11-25T19:31:22.979Z,29.50
2022-11-25T19:33:51.406Z,35.40
2022-11-25T19:36:26.285Z,32.10
2022-11-25T19:38:54.036Z,37.05
2022-11-25T19:41:21.208Z,31.63
2022-11-25T19:43:48.426Z,31.48
2022-11-25T19:46:23.999Z,32.45
2022-11-25T19:48:55.740Z,29.58
2022-11-25T19:51:24.304Z,36.20
2022-11-25T19:53:52.745Z,29.10
2022-11-25T19:56:23.845Z,25.25
2022-11-25T19:58:52.823Z,29.08
2022-11-25T20:01:21.012Z,31.88
2022-11-25T20:03:50.539Z,23.88
2022-11-25T20:06:20.965Z,28.33
2022-11-25T20:08:48.099Z,31.02
2022-11-25T20:11:16.149Z,24.42
2022-11-25T20:13:44.435Z,35.35
2022-11-25T20:16:20.366Z,33.30
2022-11-25T20:18:49.086Z,33.42
2022-11-25T20:21:24.617Z,32.50
2022-11-25T20:23:51.961Z,30.67
2022-11-25T20:26:21.520Z,37.22
2022-11-25T20:28:49.272Z,36.67
2022-11-25T20:31:16.948Z,33.58
2022-11-25T20:33:44.305Z,35.25
2022-11-25T20:36:16.267Z,38.63
2022-11-25T20:38:47.942Z,33.22
2022-11-25T20:41:15.752Z,38.17
2022-11-25T20:43:44.031Z,35.22
2022-11-25T20:46:22.797Z,34.58
2022-11-25T20:48:52.258Z,40.45
2022-11-25T20:51:20.756Z,36.28
2022-11-25T20:53:49.581Z,36.80
2022-11-25T20:56:18.059Z,35.75
2022-11-25T20:58:45.616Z,37.75
2022-11-25T21:01:14.466Z,37.75
2022-11-25T21:03:42.647Z,38.17
2022-11-25T21:06:24.097Z,31.63
2022-11-25T21:08:52.755Z,30.23
2022-11-25T21:11:21.290Z,31.17
2022-11-25T21:13:48.631Z,28.48
2022-11-25T21:16:16.310Z,35.50
2022-11-25T21:18:44.056Z,39.05
2022-11-25T21:21:18.775Z,25.17
2022-11-25T21:23:47.659Z,35.40
2022-11-25T21:26:17.986Z,29.00
2022-11-25T21:28:46.218Z,40.42
2022-11-25T21:31:23.696Z,35.08
2022-11-25T21:33:51.054Z,34.83
2022-11-25T21:36:22.811Z,36.92
2022-11-25T21:38:52.047Z,39.35
2022-11-25T21:41:19.519Z,32.47
2022-11-25T21:43:48.854Z,33.15
2022-11-25T21:46:21.202Z,38.53
2022-11-25T21:48:48.927Z,42.80
2022-11-25T21:51:24.109Z,30.48
2022-11-25T21:56:28.780Z,32.25
2022-11-25T21:58:56.574Z,36.80
2022-11-25T22:01:24.422Z,31.80
2022-11-25T22:03:51.698Z,34.25
2022-11-25T22:06:20.602Z,32.78
2022-11-25T22:08:47.842Z,40.97
2022-11-25T22:11:16.742Z,30.95
2022-11-25T22:13:44.414Z,33.75
2022-11-25T22:16:16.445Z,32.90
2022-11-25T22:18:44.464Z,37.13
2022-11-25T22:21:15.192Z,29.42
2022-11-25T22:23:43.067Z,37.22
2022-11-25T22:26:30.129Z,43.63
2022-11-25T22:28:57.562Z,35.50
2022-11-25T22:31:24.785Z,38.70
2022-11-25T22:33:52.041Z,28.80
2022-11-25T22:36:33.953Z,23.58
2022-11-25T22:39:27.535Z,28.60
2022-11-25T22:41:56.112Z,30.00
2022-11-25T22:44:25.498Z,33.65
2022-11-25T22:46:52.872Z,19.60
2022-11-25T22:49:27.997Z,35.92
2022-11-25T22:51:55.647Z,35.63
2022-11-25T22:54:23.982Z,31.27
2022-11-25T22:56:51.303Z,31.73
2022-11-25T22:59:18.535Z,31.40
2022-11-25T23:01:46.013Z,34.92
2022-11-25T23:04:17.099Z,28.58
2022-11-25T23:06:44.530Z,34.67
2022-11-25T23:09:16.016Z,26.08
2022-11-25T23:11:43.584Z,22.77
2022-11-25T23:14:10.955Z,36.08
2022-11-25T23:16:39.181Z,22.80
2022-11-25T23:19:07.045Z,27.65
2022-11-25T23:21:34.226Z,19.40
2022-11-25T23:24:01.635Z,19.80
2022-11-25T23:26:32.297Z,16.48
2022-11-25T23:29:02.128Z,19.27
2022-11-25T23:31:29.306Z,27.20
2022-11-25T23:33:56.658Z,25.13
2022-11-25T23:36:31.724Z,18.38
2022-11-25T23:39:03.703Z,30.70
2022-11-25T23:41:32.135Z,19.75
2022-11-25T23:44:02.798Z,13.98
2022-11-25T23:46:32.845Z,22.55
2022-11-25T23:49:01.937Z,20.77
2022-11-25T23:51:29.651Z,24.60
2022-11-25T23:53:57.562Z,31.52
2022-11-25T23:56:26.484Z,35.45
2022-11-25T23:58:53.609Z,28.17
